Time;durP1;ratioP1;P1;durP2;ratioP2;P2;SDS_P1;SDS_P2;PMS_P1;PMS_P2;Temp;Humidity;BMP_temperature;BMP_pressure;BME280_temperature;BME280_humidity;BME280_pressure;Samples;Min_cycle;Max_cycle;Signal;HPM_P1;HPM_P2
2022/03/19 00:02:20;;;;;;;76.10;48.42;;;;;;;;;;5062648;28;20028;-73
2022/03/19 00:04:46;;;;;;;66.85;49.13;;;;;;;;;;5068949;28;20815;-73
2022/03/19 00:07:12;;;;;;;74.82;45.80;;;;;;;;;;5067243;28;20040;-73
2022/03/19 00:09:39;;;;;;;68.13;46.53;;;;;;;;;;5069117;28;20689;-72
2022/03/19 00:12:05;;;;;;;68.78;48.55;;;;;;;;;;5067850;28;20072;-73
2022/03/19 00:14:31;;;;;;;66.93;47.10;;;;;;;;;;5059425;28;20036;-73
2022/03/19 00:16:59;;;;;;;67.47;46.95;;;;;;;;;;5068639;28;20033;-73
2022/03/19 00:19:25;;;;;;;79.00;52.15;;;;;;;;;;5067887;28;20028;-72
2022/03/19 00:21:51;;;;;;;75.97;50.10;;;;;;;;;;5068563;28;20493;-72
2022/03/19 00:24:17;;;;;;;84.22;57.75;;;;;;;;;;5065831;28;20514;-72
2022/03/19 00:26:43;;;;;;;81.63;53.95;;;;;;;;;;5068745;28;20056;-73
2022/03/19 00:29:09;;;;;;;77.82;51.67;;;;;;;;;;5068167;28;20036;-73
2022/03/19 00:31:35;;;;;;;69.35;50.17;;;;;;;;;;5067982;28;20082;-73
2022/03/19 00:34:01;;;;;;;78.07;51.65;;;;;;;;;;5066969;28;20036;-73
2022/03/19 00:36:27;;;;;;;76.78;50.13;;;;;;;;;;5067127;28;20028;-73
2022/03/19 00:38:54;;;;;;;68.80;49.50;;;;;;;;;;5062276;28;20033;-73
2022/03/19 00:41:20;;;;;;;73.03;47.38;;;;;;;;;;5067174;28;20025;-73
2022/03/19 00:43:46;;;;;;;67.82;47.65;;;;;;;;;;5067090;28;20063;-73
2022/03/19 00:46:13;;;;;;;71.13;45.65;;;;;;;;;;5068226;28;20443;-73
2022/03/19 00:48:40;;;;;;;67.72;49.03;;;;;;;;;;5067526;28;20039;-73
2022/03/19 00:51:06;;;;;;;71.65;46.70;;;;;;;;;;5067743;28;20128;-73
2022/03/19 00:53:32;;;;;;;68.57;46.13;;;;;;;;;;5067631;28;20426;-72
2022/03/19 00:55:58;;;;;;;72.43;49.05;;;;;;;;;;5068122;28;20378;-72
2022/03/19 00:58:24;;;;;;;70.50;50.83;;;;;;;;;;5067506;28;20109;-73
2022/03/19 01:00:50;;;;;;;73.63;47.67;;;;;;;;;;5068274;28;20724;-72
2022/03/19 01:03:16;;;;;;;73.05;49.53;;;;;;;;;;5068600;28;20071;-72
2022/03/19 01:05:42;;;;;;;71.90;49.58;;;;;;;;;;5067940;28;20111;-73
2022/03/19 01:08:09;;;;;;;68.43;49.72;;;;;;;;;;5068550;28;20147;-72
2022/03/19 01:10:35;;;;;;;72.65;50.40;;;;;;;;;;5067283;28;20060;-72
2022/03/19 01:13:03;;;;;;;72.03;50.80;;;;;;;;;;5068091;28;20068;-73
2022/03/19 01:15:30;;;;;;;74.38;49.97;;;;;;;;;;5067310;28;20037;-72
2022/03/19 01:17:56;;;;;;;72.97;51.05;;;;;;;;;;5067813;28;20382;-72
2022/03/19 01:20:22;;;;;;;77.30;49.47;;;;;;;;;;5067221;28;20060;-72
2022/03/19 01:22:49;;;;;;;72.07;50.13;;;;;;;;;;5068283;28;20048;-72
2022/03/19 01:25:17;;;;;;;77.25;53.35;;;;;;;;;;5067045;28;20464;-72
2022/03/19 01:27:43;;;;;;;78.78;52.72;;;;;;;;;;5068368;28;20068;-73
2022/03/19 01:30:13;;;;;;;86.18;51.90;;;;;;;;;;5067447;28;20052;-72
2022/03/19 01:32:40;;;;;;;72.55;52.55;;;;;;;;;;5067525;28;20044;-73
2022/03/19 01:35:06;;;;;;;73.85;51.05;;;;;;;;;;5067121;28;20444;-72
2022/03/19 01:37:32;;;;;;;78.55;54.10;;;;;;;;;;5068438;28;20060;-72
2022/03/19 01:39:58;;;;;;;76.82;49.95;;;;;;;;;;5067599;28;20101;-72
2022/03/19 01:42:30;;;;;;;73.85;52.35;;;;;;;;;;5067161;28;20643;-72
2022/03/19 01:44:57;;;;;;;79.07;51.33;;;;;;;;;;5063139;28;20390;-73
2022/03/19 01:47:24;;;;;;;73.13;52.33;;;;;;;;;;5066986;28;20042;-72
2022/03/19 01:49:50;;;;;;;72.20;49.22;;;;;;;;;;5068353;28;20068;-72
2022/03/19 01:52:17;;;;;;;86.07;55.25;;;;;;;;;;5066440;28;20472;-73
2022/03/19 01:54:44;;;;;;;76.45;52.72;;;;;;;;;;5066575;28;20028;-72
2022/03/19 01:57:11;;;;;;;75.95;52.03;;;;;;;;;;5059979;28;20067;-72
2022/03/19 01:59:38;;;;;;;74.53;48.95;;;;;;;;;;5068153;28;20036;-73
2022/03/19 02:02:05;;;;;;;75.80;52.85;;;;;;;;;;5067316;28;20054;-73
2022/03/19 02:04:34;;;;;;;65.35;46.85;;;;;;;;;;5068087;28;20040;-72
2022/03/19 02:07:00;;;;;;;73.18;53.78;;;;;;;;;;5060290;28;20033;-72
2022/03/19 02:09:26;;;;;;;67.10;46.67;;;;;;;;;;5056099;28;20060;-72
2022/03/19 02:11:52;;;;;;;68.28;50.20;;;;;;;;;;5068034;28;20140;-73
2022/03/19 02:14:19;;;;;;;65.85;45.83;;;;;;;;;;5060886;28;20136;-72
2022/03/19 02:16:46;;;;;;;69.28;48.90;;;;;;;;;;5067922;28;20036;-73
2022/03/19 02:19:12;;;;;;;68.78;49.50;;;;;;;;;;5065211;28;20553;-72
2022/03/19 02:21:39;;;;;;;69.13;51.35;;;;;;;;;;5047669;28;20516;-72
2022/03/19 02:26:51;;;;;;;65.70;47.35;;;;;;;;;;5060412;28;20055;-72
2022/03/19 02:29:17;;;;;;;63.00;46.88;;;;;;;;;;5062489;28;20112;-72
2022/03/19 02:31:44;;;;;;;57.15;40.90;;;;;;;;;;5061531;28;20464;-73
2022/03/19 02:34:11;;;;;;;65.22;45.13;;;;;;;;;;5068112;28;20610;-73
2022/03/19 02:36:40;;;;;;;60.55;44.50;;;;;;;;;;5070689;28;20028;-72
2022/03/19 02:39:13;;;;;;;60.53;43.45;;;;;;;;;;5070977;28;20028;-72
2022/03/19 02:41:59;;;;;;;56.33;40.97;;;;;;;;;;5062227;28;20047;-73
2022/03/19 02:44:25;;;;;;;62.58;43.65;;;;;;;;;;5070986;28;20566;-72
2022/03/19 02:46:53;;;;;;;58.15;44.85;;;;;;;;;;5070080;28;20039;-73
2022/03/19 02:49:19;;;;;;;54.10;41.72;;;;;;;;;;5070870;28;20042;-72
2022/03/19 02:51:47;;;;;;;59.67;42.15;;;;;;;;;;5070073;28;20063;-72
2022/03/19 02:54:14;;;;;;;58.42;40.38;;;;;;;;;;5070981;28;20041;-72
2022/03/19 02:56:41;;;;;;;61.83;41.17;;;;;;;;;;5064268;28;20103;-72
2022/03/19 02:59:08;;;;;;;59.90;39.58;;;;;;;;;;5065938;28;20044;-73
2022/03/19 03:01:34;;;;;;;58.30;41.72;;;;;;;;;;5069786;28;20025;-72
2022/03/19 03:04:01;;;;;;;56.40;41.80;;;;;;;;;;5066023;28;20487;-72
2022/03/19 03:06:28;;;;;;;53.53;40.03;;;;;;;;;;5070052;28;20068;-72
2022/03/19 03:08:54;;;;;;;51.05;38.25;;;;;;;;;;5070060;28;20368;-72
2022/03/19 03:11:20;;;;;;;58.90;43.80;;;;;;;;;;5070399;28;20471;-72
2022/03/19 03:13:46;;;;;;;54.92;40.75;;;;;;;;;;5056187;28;20054;-72
2022/03/19 03:16:12;;;;;;;55.40;40.83;;;;;;;;;;5050375;28;20029;-72
2022/03/19 03:18:38;;;;;;;54.45;39.42;;;;;;;;;;5060773;28;20036;-72
2022/03/19 03:21:04;;;;;;;54.75;40.95;;;;;;;;;;5070450;28;20108;-73
2022/03/19 03:23:31;;;;;;;58.90;40.90;;;;;;;;;;5069381;28;20170;-72
2022/03/19 03:25:57;;;;;;;54.50;41.50;;;;;;;;;;5070427;28;20020;-73
2022/03/19 03:28:24;;;;;;;57.63;41.30;;;;;;;;;;5069634;28;20036;-72
2022/03/19 03:30:50;;;;;;;56.25;38.90;;;;;;;;;;5070260;28;20142;-73
2022/03/19 03:33:16;;;;;;;55.20;39.45;;;;;;;;;;5069698;28;20119;-73
2022/03/19 03:35:42;;;;;;;57.35;40.72;;;;;;;;;;5070298;28;20071;-73
2022/03/19 03:38:08;;;;;;;55.03;40.05;;;;;;;;;;5069020;28;20036;-73
2022/03/19 03:40:34;;;;;;;53.50;36.45;;;;;;;;;;5068822;28;20426;-72
2022/03/19 03:43:00;;;;;;;48.58;36.20;;;;;;;;;;5069639;28;20803;-72
2022/03/19 03:45:30;;;;;;;50.72;35.55;;;;;;;;;;5057922;28;20939;-73
2022/03/19 03:47:56;;;;;;;47.80;34.78;;;;;;;;;;5067851;28;20544;-72
2022/03/19 03:50:22;;;;;;;53.47;39.42;;;;;;;;;;5059615;28;20080;-72
2022/03/19 03:52:49;;;;;;;48.35;37.92;;;;;;;;;;5063372;28;20614;-73
2022/03/19 03:55:15;;;;;;;49.47;36.38;;;;;;;;;;5068871;28;20060;-73
2022/03/19 03:57:41;;;;;;;52.63;38.42;;;;;;;;;;5070069;28;20033;-73
2022/03/19 04:00:11;;;;;;;63.60;40.20;;;;;;;;;;5068458;28;20107;-72
2022/03/19 04:02:37;;;;;;;53.75;36.30;;;;;;;;;;5069176;28;20486;-73
2022/03/19 04:05:03;;;;;;;52.15;37.85;;;;;;;;;;5069006;28;20032;-72
2022/03/19 04:07:30;;;;;;;49.90;37.72;;;;;;;;;;5069757;28;20504;-73
2022/03/19 04:09:56;;;;;;;48.47;37.00;;;;;;;;;;5069126;28;20044;-73
2022/03/19 04:12:22;;;;;;;52.95;38.17;;;;;;;;;;5062846;28;20094;-72
2022/03/19 04:14:49;;;;;;;52.60;37.17;;;;;;;;;;5068931;28;20572;-72
2022/03/19 04:17:15;;;;;;;53.40;37.88;;;;;;;;;;5065585;28;20032;-72
2022/03/19 04:19:41;;;;;;;47.38;33.65;;;;;;;;;;5068942;28;20021;-73
2022/03/19 04:22:07;;;;;;;46.85;34.20;;;;;;;;;;5058046;28;20109;-72
2022/03/19 04:24:34;;;;;;;49.00;36.50;;;;;;;;;;5068655;28;20036;-72
2022/03/19 04:27:00;;;;;;;46.63;35.47;;;;;;;;;;5067826;28;20131;-73
2022/03/19 04:29:26;;;;;;;45.13;34.35;;;;;;;;;;5068416;28;20101;-73
2022/03/19 04:31:52;;;;;;;47.10;34.63;;;;;;;;;;5067344;28;20550;-72
2022/03/19 04:34:19;;;;;;;47.92;34.65;;;;;;;;;;5068709;28;20921;-72
2022/03/19 04:36:45;;;;;;;49.53;33.53;;;;;;;;;;5067945;28;20078;-72
2022/03/19 04:39:11;;;;;;;43.25;33.75;;;;;;;;;;5068390;28;20383;-73
2022/03/19 04:41:38;;;;;;;42.50;31.75;;;;;;;;;;5063766;28;20166;-72
2022/03/19 04:44:04;;;;;;;48.92;36.30;;;;;;;;;;5048546;28;20029;-73
2022/03/19 04:46:30;;;;;;;51.47;35.53;;;;;;;;;;5050665;28;20399;-72
2022/03/19 04:48:57;;;;;;;48.97;32.90;;;;;;;;;;5068549;28;20041;-72
2022/03/19 04:51:26;;;;;;;46.53;33.63;;;;;;;;;;5067753;28;20033;-73
2022/03/19 04:53:52;;;;;;;47.47;32.63;;;;;;;;;;5067684;28;20115;-72
2022/03/19 04:56:19;;;;;;;45.38;32.42;;;;;;;;;;5068014;28;20112;-72
2022/03/19 04:58:45;;;;;;;44.50;32.80;;;;;;;;;;5065468;28;20036;-72
2022/03/19 05:01:11;;;;;;;47.65;34.38;;;;;;;;;;5067635;28;20028;-72
2022/03/19 05:03:37;;;;;;;45.03;33.25;;;;;;;;;;5064380;28;20032;-73
2022/03/19 05:06:03;;;;;;;45.25;33.80;;;;;;;;;;5065852;28;20043;-72
2022/03/19 05:08:29;;;;;;;48.33;34.40;;;;;;;;;;5066109;28;20028;-72
2022/03/19 05:11:13;;;;;;;42.05;32.20;;;;;;;;;;5068246;28;20036;-72
2022/03/19 05:13:40;;;;;;;43.47;34.38;;;;;;;;;;5064118;28;20041;-73
2022/03/19 05:16:06;;;;;;;45.28;34.90;;;;;;;;;;5062461;28;20567;-72
2022/03/19 05:18:32;;;;;;;50.92;34.88;;;;;;;;;;5067862;28;20044;-72
2022/03/19 05:20:58;;;;;;;43.42;32.20;;;;;;;;;;5049492;28;20032;-72
2022/03/19 05:23:25;;;;;;;45.33;34.08;;;;;;;;;;5047881;28;20087;-73
2022/03/19 05:25:52;;;;;;;44.17;33.80;;;;;;;;;;5063050;28;20033;-73
2022/03/19 05:28:18;;;;;;;49.35;34.33;;;;;;;;;;5068412;28;20463;-73
2022/03/19 05:30:44;;;;;;;45.85;31.85;;;;;;;;;;5067080;28;20037;-73
2022/03/19 05:33:10;;;;;;;49.72;32.45;;;;;;;;;;5067869;28;20570;-72
2022/03/19 05:35:36;;;;;;;41.35;32.00;;;;;;;;;;5067261;28;20067;-72
2022/03/19 05:38:04;;;;;;;49.25;32.05;;;;;;;;;;5068291;28;20040;-72
2022/03/19 05:40:31;;;;;;;45.55;34.22;;;;;;;;;;5067059;28;20028;-72
2022/03/19 05:42:57;;;;;;;47.15;34.60;;;;;;;;;;5068761;28;20515;-73
2022/03/19 05:45:23;;;;;;;47.22;34.08;;;;;;;;;;5064294;28;20032;-73
2022/03/19 05:47:49;;;;;;;48.35;32.10;;;;;;;;;;5068130;28;20071;-73
2022/03/19 05:50:15;;;;;;;42.55;32.33;;;;;;;;;;5064030;28;20120;-72
2022/03/19 05:52:41;;;;;;;46.38;31.85;;;;;;;;;;5066661;28;20033;-72
2022/03/19 05:55:08;;;;;;;41.67;32.97;;;;;;;;;;5066943;28;20029;-73
2022/03/19 05:57:34;;;;;;;44.38;32.95;;;;;;;;;;5067452;28;20074;-72
2022/03/19 06:00:00;;;;;;;41.55;29.60;;;;;;;;;;5071390;28;20677;-73
2022/03/19 06:02:26;;;;;;;39.63;29.88;;;;;;;;;;5069366;28;20032;-73
2022/03/19 06:04:55;;;;;;;42.63;31.60;;;;;;;;;;5068700;28;20032;-72
2022/03/19 06:07:21;;;;;;;43.97;30.42;;;;;;;;;;5070446;28;20041;-73
2022/03/19 06:09:48;;;;;;;44.05;30.58;;;;;;;;;;5071171;28;20041;-73
2022/03/19 06:12:14;;;;;;;43.70;31.05;;;;;;;;;;5070776;28;20098;-74
2022/03/19 06:14:40;;;;;;;43.40;30.80;;;;;;;;;;5062340;28;20540;-72
2022/03/19 06:17:06;;;;;;;38.95;31.17;;;;;;;;;;5069807;28;20831;-73
2022/03/19 06:19:32;;;;;;;36.15;27.50;;;;;;;;;;5084235;28;20450;-73
2022/03/19 06:21:58;;;;;;;40.15;28.17;;;;;;;;;;5070871;28;20029;-73
2022/03/19 06:24:24;;;;;;;48.80;30.70;;;;;;;;;;5070879;28;20084;-73
2022/03/19 06:26:53;;;;;;;39.50;28.75;;;;;;;;;;5074691;28;20042;-72
2022/03/19 06:29:19;;;;;;;39.83;29.33;;;;;;;;;;5079902;28;20039;-72
2022/03/19 06:31:45;;;;;;;38.13;27.65;;;;;;;;;;5069303;28;20669;-73
2022/03/19 06:34:11;;;;;;;35.08;27.05;;;;;;;;;;5068695;28;20739;-72
2022/03/19 06:39:22;;;;;;;36.80;26.50;;;;;;;;;;5069176;28;20132;-72
2022/03/19 06:41:48;;;;;;;39.90;26.85;;;;;;;;;;5070930;28;20462;-72
2022/03/19 06:44:14;;;;;;;34.83;24.75;;;;;;;;;;5077384;28;20060;-72
2022/03/19 06:46:40;;;;;;;35.72;26.88;;;;;;;;;;5070647;28;20035;-72
2022/03/19 06:49:06;;;;;;;36.88;26.73;;;;;;;;;;5071256;28;20086;-73
2022/03/19 06:51:32;;;;;;;38.17;25.92;;;;;;;;;;5084782;28;20063;-73
2022/03/19 06:53:59;;;;;;;38.10;27.85;;;;;;;;;;5073144;28;20674;-72
2022/03/19 06:56:25;;;;;;;36.45;25.67;;;;;;;;;;5066700;28;20120;-73
2022/03/19 06:58:51;;;;;;;36.08;26.05;;;;;;;;;;5069057;28;20120;-73
2022/03/19 07:01:17;;;;;;;37.75;27.10;;;;;;;;;;5065522;28;20690;-73
2022/03/19 07:03:43;;;;;;;37.92;25.92;;;;;;;;;;5068551;28;20036;-73
2022/03/19 07:06:10;;;;;;;35.90;27.95;;;;;;;;;;5070412;28;20418;-73
2022/03/19 07:08:36;;;;;;;35.17;26.58;;;;;;;;;;5073691;28;20079;-73
2022/03/19 07:11:02;;;;;;;38.88;26.08;;;;;;;;;;5071091;28;20033;-72
2022/03/19 07:13:28;;;;;;;38.22;25.90;;;;;;;;;;5072886;28;20917;-72
2022/03/19 07:15:54;;;;;;;37.90;26.17;;;;;;;;;;5073481;28;20055;-73
2022/03/19 07:18:20;;;;;;;38.28;27.15;;;;;;;;;;5069908;28;20033;-73
2022/03/19 07:20:46;;;;;;;37.47;26.45;;;;;;;;;;5066248;28;20036;-73
2022/03/19 07:23:12;;;;;;;35.33;25.90;;;;;;;;;;5069028;28;20057;-73
2022/03/19 07:25:39;;;;;;;34.80;25.83;;;;;;;;;;5074016;28;20044;-73
2022/03/19 07:28:06;;;;;;;54.75;27.52;;;;;;;;;;5063515;28;20020;-73
2022/03/19 07:30:33;;;;;;;32.92;25.05;;;;;;;;;;5063216;28;20043;-73
2022/03/19 07:32:59;;;;;;;42.97;28.17;;;;;;;;;;5059986;28;20029;-73
2022/03/19 07:35:25;;;;;;;35.80;26.15;;;;;;;;;;5068516;28;20032;-73
2022/03/19 07:37:51;;;;;;;43.30;27.83;;;;;;;;;;5068598;28;20375;-72
2022/03/19 07:41:45;;;;;;;34.92;25.67;;;;;;;;;;5065595;28;20163;-74
2022/03/19 07:43:07;;;;;;;35.95;25.48;;;;;;;;;;5058172;28;20032;-73
2022/03/19 07:45:37;;;;;;;38.40;27.23;;;;;;;;;;5059464;28;20059;-73
2022/03/19 07:48:04;;;;;;;34.03;25.95;;;;;;;;;;5061286;28;20052;-73
2022/03/19 07:50:30;;;;;;;41.20;26.65;;;;;;;;;;5064518;28;20421;-73
2022/03/19 07:52:56;;;;;;;41.22;25.75;;;;;;;;;;5058110;28;20033;-73
2022/03/19 07:55:24;;;;;;;33.72;25.55;;;;;;;;;;5061230;28;20029;-73
2022/03/19 07:57:50;;;;;;;37.30;28.95;;;;;;;;;;5062242;28;21360;-73
2022/03/19 08:00:16;;;;;;;39.35;26.77;;;;;;;;;;5066013;28;20036;-73
2022/03/19 08:02:42;;;;;;;35.70;27.13;;;;;;;;;;5069284;28;20063;-73
2022/03/19 08:05:09;;;;;;;42.92;28.45;;;;;;;;;;5060674;28;20029;-73
2022/03/19 08:07:37;;;;;;;34.78;26.73;;;;;;;;;;5064252;28;20044;-72
2022/03/19 08:10:03;;;;;;;39.20;28.10;;;;;;;;;;5061999;28;20550;-72
2022/03/19 08:12:30;;;;;;;39.08;29.85;;;;;;;;;;5061783;28;20037;-73
2022/03/19 08:14:56;;;;;;;34.42;26.77;;;;;;;;;;5060491;28;20078;-74
2022/03/19 08:17:22;;;;;;;37.78;28.35;;;;;;;;;;5066966;28;20040;-72
2022/03/19 08:19:49;;;;;;;43.92;30.65;;;;;;;;;;5059622;28;20501;-72
2022/03/19 08:22:15;;;;;;;38.83;27.63;;;;;;;;;;5063125;28;20047;-72
2022/03/19 08:24:41;;;;;;;38.15;29.45;;;;;;;;;;5065247;28;20059;-72
2022/03/19 08:27:09;;;;;;;41.33;27.80;;;;;;;;;;5062663;28;20028;-73
2022/03/19 08:29:35;;;;;;;35.45;27.23;;;;;;;;;;5062910;28;20033;-73
2022/03/19 08:32:01;;;;;;;38.90;28.13;;;;;;;;;;5066923;28;20029;-71
2022/03/19 08:34:28;;;;;;;39.25;28.45;;;;;;;;;;5065640;28;20733;-73
2022/03/19 08:36:55;;;;;;;38.83;26.90;;;;;;;;;;5068776;28;20066;-72
2022/03/19 08:42:06;;;;;;;40.00;29.95;;;;;;;;;;5069718;28;20415;-74
2022/03/19 08:44:32;;;;;;;36.25;26.33;;;;;;;;;;5061029;28;20029;-71
2022/03/19 08:46:58;;;;;;;37.85;27.15;;;;;;;;;;5063861;28;20043;-71
2022/03/19 08:49:24;;;;;;;43.83;30.27;;;;;;;;;;5075266;28;20051;-74
2022/03/19 08:51:50;;;;;;;41.13;30.23;;;;;;;;;;5058904;28;20380;-71
2022/03/19 08:54:19;;;;;;;41.50;29.52;;;;;;;;;;5069409;28;20035;-72
2022/03/19 08:56:46;;;;;;;40.08;28.00;;;;;;;;;;5069992;28;20084;-73
2022/03/19 08:59:13;;;;;;;38.67;28.70;;;;;;;;;;5069377;28;20032;-71
2022/03/19 09:01:40;;;;;;;32.72;24.65;;;;;;;;;;5067220;28;20047;-73
2022/03/19 09:04:06;;;;;;;37.53;26.88;;;;;;;;;;5070301;28;20340;-73
2022/03/19 09:06:33;;;;;;;46.38;30.88;;;;;;;;;;5063394;28;20045;-71
2022/03/19 09:09:03;;;;;;;40.05;28.80;;;;;;;;;;5066590;28;20032;-72
2022/03/19 09:11:29;;;;;;;35.78;27.05;;;;;;;;;;5059846;28;20542;-71
2022/03/19 09:13:56;;;;;;;36.42;26.88;;;;;;;;;;5061247;28;20036;-71
2022/03/19 09:16:23;;;;;;;34.10;24.05;;;;;;;;;;5064230;28;20039;-71
2022/03/19 09:18:50;;;;;;;40.78;27.83;;;;;;;;;;5066104;28;20139;-74
2022/03/19 09:21:16;;;;;;;34.88;25.88;;;;;;;;;;5055866;28;20048;-73
2022/03/19 09:23:45;;;;;;;35.88;26.73;;;;;;;;;;5067987;28;20048;-72
2022/03/19 09:26:11;;;;;;;42.70;26.95;;;;;;;;;;5059340;28;20040;-71
2022/03/19 09:28:37;;;;;;;34.53;24.45;;;;;;;;;;5067679;28;20162;-73
2022/03/19 09:31:03;;;;;;;39.17;25.45;;;;;;;;;;5060482;28;20087;-74
2022/03/19 09:33:29;;;;;;;36.33;27.40;;;;;;;;;;5072378;28;20037;-71
2022/03/19 09:35:57;;;;;;;36.63;26.23;;;;;;;;;;5070750;28;20033;-71
2022/03/19 09:38:23;;;;;;;36.42;26.95;;;;;;;;;;5068594;28;20033;-73
2022/03/19 09:40:49;;;;;;;35.03;24.63;;;;;;;;;;5076243;28;20028;-74
2022/03/19 09:43:15;;;;;;;40.47;27.17;;;;;;;;;;5074934;28;20050;-72
2022/03/19 09:45:41;;;;;;;33.22;24.25;;;;;;;;;;5072033;28;20114;-73
2022/03/19 09:48:08;;;;;;;39.40;28.27;;;;;;;;;;5070660;28;20142;-74
2022/03/19 09:50:38;;;;;;;42.25;30.02;;;;;;;;;;5077304;28;20041;-73
2022/03/19 09:53:05;;;;;;;38.90;27.73;;;;;;;;;;5072532;28;20077;-74
2022/03/19 09:55:31;;;;;;;38.10;28.70;;;;;;;;;;5073489;28;20037;-73
2022/03/19 09:57:57;;;;;;;36.20;27.17;;;;;;;;;;5072112;28;20554;-71
2022/03/19 10:00:26;;;;;;;43.70;28.52;;;;;;;;;;5070141;28;20032;-73
2022/03/19 10:02:59;;;;;;;37.10;25.83;;;;;;;;;;5067718;28;20479;-73
2022/03/19 10:10:58;;;;;;;38.35;26.27;;;;;;;;;;5076657;28;20539;-73
2022/03/19 10:13:26;;;;;;;38.15;27.77;;;;;;;;;;5078779;28;20036;-73
2022/03/19 10:15:53;;;;;;;37.20;27.23;;;;;;;;;;5080344;28;20131;-73
2022/03/19 10:18:19;;;;;;;36.00;24.98;;;;;;;;;;5070266;28;20671;-73
2022/03/19 10:20:45;;;;;;;39.75;25.92;;;;;;;;;;5075213;28;20992;-74
2022/03/19 10:23:11;;;;;;;40.03;25.45;;;;;;;;;;5064069;28;20045;-73
2022/03/19 10:25:38;;;;;;;42.53;26.67;;;;;;;;;;5071690;28;20478;-73
2022/03/19 10:28:11;;;;;;;35.88;24.95;;;;;;;;;;5069928;28;20028;-73
2022/03/19 10:30:38;;;;;;;43.15;24.60;;;;;;;;;;5076078;28;20068;-73
2022/03/19 10:33:07;;;;;;;36.67;25.48;;;;;;;;;;5066767;28;20440;-74
2022/03/19 10:35:34;;;;;;;41.08;25.17;;;;;;;;;;5070856;28;20382;-73
2022/03/19 10:38:03;;;;;;;42.67;25.88;;;;;;;;;;5073456;28;20022;-74
2022/03/19 10:40:38;;;;;;;37.30;25.48;;;;;;;;;;5063236;28;20025;-73
2022/03/19 10:43:05;;;;;;;41.28;27.60;;;;;;;;;;5063635;28;20024;-73
2022/03/19 10:45:31;;;;;;;38.15;25.67;;;;;;;;;;5062539;28;20028;-73
2022/03/19 10:47:57;;;;;;;39.17;26.00;;;;;;;;;;5067932;28;20021;-72
2022/03/19 10:50:24;;;;;;;41.75;26.63;;;;;;;;;;5075802;28;20048;-72
2022/03/19 10:52:51;;;;;;;41.13;27.08;;;;;;;;;;5071998;28;20044;-73
2022/03/19 10:55:18;;;;;;;40.65;26.92;;;;;;;;;;5067036;28;20037;-74
2022/03/19 10:57:44;;;;;;;41.60;27.25;;;;;;;;;;5072128;28;20028;-74
2022/03/19 11:00:10;;;;;;;40.78;24.48;;;;;;;;;;5070283;28;20032;-74
2022/03/19 11:02:39;;;;;;;42.55;26.10;;;;;;;;;;5068614;28;20032;-73
2022/03/19 11:05:06;;;;;;;39.05;27.20;;;;;;;;;;5074434;28;20033;-73
2022/03/19 11:07:33;;;;;;;45.08;27.58;;;;;;;;;;5061093;28;20036;-71
2022/03/19 11:09:59;;;;;;;48.00;27.30;;;;;;;;;;5070522;28;20068;-73
2022/03/19 11:12:31;;;;;;;40.38;27.92;;;;;;;;;;5075948;28;20031;-74
2022/03/19 11:15:01;;;;;;;42.65;28.23;;;;;;;;;;5067879;28;20075;-73
2022/03/19 11:17:30;;;;;;;48.60;29.73;;;;;;;;;;5071149;28;20135;-73
2022/03/19 11:19:59;;;;;;;39.15;26.23;;;;;;;;;;5066968;28;20024;-73
2022/03/19 11:22:26;;;;;;;40.67;25.48;;;;;;;;;;5065508;28;20102;-74
2022/03/19 11:25:11;;;;;;;45.00;27.20;;;;;;;;;;5059033;28;20031;-73
2022/03/19 11:27:38;;;;;;;43.40;25.42;;;;;;;;;;5068439;28;20384;-73
2022/03/19 11:30:05;;;;;;;40.60;24.95;;;;;;;;;;5065838;28;20039;-73
2022/03/19 11:32:31;;;;;;;42.15;25.48;;;;;;;;;;5064308;28;20170;-73
2022/03/19 11:34:59;;;;;;;33.13;23.70;;;;;;;;;;5063664;28;20085;-74
2022/03/19 11:37:26;;;;;;;40.70;27.42;;;;;;;;;;5066669;28;20035;-74
2022/03/19 11:40:22;;;;;;;35.85;24.38;;;;;;;;;;5067285;28;20024;-73
2022/03/19 11:42:55;;;;;;;36.80;27.65;;;;;;;;;;5056558;28;20040;-73
2022/03/19 11:45:21;;;;;;;40.80;25.17;;;;;;;;;;5062212;28;20039;-73
2022/03/19 11:47:47;;;;;;;39.20;27.20;;;;;;;;;;5066263;28;20531;-73
2022/03/19 11:50:26;;;;;;;36.85;25.58;;;;;;;;;;5076508;28;20107;-73
2022/03/19 11:52:55;;;;;;;37.53;24.70;;;;;;;;;;5064040;28;20036;-73
2022/03/19 11:55:29;;;;;;;43.08;25.13;;;;;;;;;;5073403;28;20064;-73
2022/03/19 11:58:05;;;;;;;38.78;25.42;;;;;;;;;;5057525;28;20032;-73
2022/03/19 12:00:32;;;;;;;51.00;27.38;;;;;;;;;;5070754;28;20455;-73
2022/03/19 12:03:08;;;;;;;41.60;26.98;;;;;;;;;;5065984;28;20681;-73
2022/03/19 12:05:38;;;;;;;40.45;25.17;;;;;;;;;;5073696;28;20135;-73
2022/03/19 12:08:08;;;;;;;44.20;23.95;;;;;;;;;;5074509;28;20684;-73
2022/03/19 12:10:38;;;;;;;33.85;21.77;;;;;;;;;;5067605;28;20070;-73
2022/03/19 12:13:21;;;;;;;39.33;24.92;;;;;;;;;;5070645;28;20767;-73
2022/03/19 12:15:48;;;;;;;38.30;24.35;;;;;;;;;;5068725;28;20029;-73
2022/03/19 12:18:24;;;;;;;34.65;23.40;;;;;;;;;;5052953;28;20028;-73
2022/03/19 12:20:51;;;;;;;34.22;23.35;;;;;;;;;;5068277;28;20033;-73
2022/03/19 12:23:18;;;;;;;37.55;25.55;;;;;;;;;;5064673;28;20056;-73
2022/03/19 12:25:48;;;;;;;31.35;23.00;;;;;;;;;;5067832;28;20033;-73
2022/03/19 12:28:18;;;;;;;35.17;24.35;;;;;;;;;;5061560;28;20333;-73
2022/03/19 12:30:44;;;;;;;35.10;23.70;;;;;;;;;;5067842;28;20028;-73
2022/03/19 12:33:11;;;;;;;37.72;25.20;;;;;;;;;;5061904;28;20025;-73
2022/03/19 12:35:46;;;;;;;37.83;24.63;;;;;;;;;;5068179;28;20036;-73
2022/03/19 12:38:23;;;;;;;36.72;25.27;;;;;;;;;;5060761;28;20030;-73
2022/03/19 12:43:37;;;;;;;34.80;24.98;;;;;;;;;;5068206;28;20525;-73
2022/03/19 12:46:03;;;;;;;33.28;24.23;;;;;;;;;;5067763;28;20033;-73
2022/03/19 12:48:38;;;;;;;32.85;23.65;;;;;;;;;;5066011;28;20119;-73
2022/03/19 12:51:04;;;;;;;36.67;24.67;;;;;;;;;;5064666;28;20429;-73
2022/03/19 12:53:32;;;;;;;35.38;24.60;;;;;;;;;;5066147;28;20040;-73
2022/03/19 12:56:16;;;;;;;36.60;24.85;;;;;;;;;;5062387;28;20379;-73
2022/03/19 12:58:44;;;;;;;40.15;24.40;;;;;;;;;;5062503;28;20648;-73
2022/03/19 13:01:18;;;;;;;34.58;25.00;;;;;;;;;;5065937;28;20032;-73
2022/03/19 13:03:44;;;;;;;40.60;24.30;;;;;;;;;;5059954;28;20044;-73
2022/03/19 13:06:11;;;;;;;40.67;26.00;;;;;;;;;;5060838;28;20040;-73
2022/03/19 13:08:50;;;;;;;37.45;23.88;;;;;;;;;;5067250;28;20036;-73
2022/03/19 13:11:17;;;;;;;37.05;26.40;;;;;;;;;;5056164;28;20060;-73
2022/03/19 13:13:43;;;;;;;35.95;24.83;;;;;;;;;;5060348;28;20082;-73
2022/03/19 13:16:10;;;;;;;35.20;25.38;;;;;;;;;;5064865;28;20028;-73
2022/03/19 13:18:37;;;;;;;40.53;25.00;;;;;;;;;;5066990;28;20032;-73
2022/03/19 13:21:05;;;;;;;34.30;23.58;;;;;;;;;;5062299;28;20036;-73
2022/03/19 13:23:32;;;;;;;41.00;25.75;;;;;;;;;;5066911;28;20493;-72
2022/03/19 13:25:58;;;;;;;32.35;24.05;;;;;;;;;;5066636;28;20059;-72
2022/03/19 13:28:25;;;;;;;38.50;25.38;;;;;;;;;;5067807;28;20029;-73
2022/03/19 13:30:51;;;;;;;34.42;25.88;;;;;;;;;;5065074;28;20115;-73
2022/03/19 13:33:18;;;;;;;36.33;25.27;;;;;;;;;;5066175;28;20788;-73
2022/03/19 13:35:51;;;;;;;38.40;26.50;;;;;;;;;;5065511;28;20784;-73
2022/03/19 13:38:18;;;;;;;38.90;26.05;;;;;;;;;;5066337;28;20024;-73
2022/03/19 13:40:45;;;;;;;35.10;24.15;;;;;;;;;;5069733;28;20081;-73
2022/03/19 13:43:11;;;;;;;36.75;24.95;;;;;;;;;;5066563;28;20025;-72
2022/03/19 13:45:38;;;;;;;38.58;25.77;;;;;;;;;;5066654;28;20039;-72
2022/03/19 13:48:05;;;;;;;35.53;26.33;;;;;;;;;;5067221;28;20407;-73
2022/03/19 13:50:32;;;;;;;41.97;24.75;;;;;;;;;;5067301;28;20028;-73
2022/03/19 13:52:59;;;;;;;41.55;24.52;;;;;;;;;;5065971;28;20106;-73
2022/03/19 13:55:28;;;;;;;38.90;25.92;;;;;;;;;;5067445;28;20036;-72
2022/03/19 13:58:02;;;;;;;36.03;24.73;;;;;;;;;;5062399;28;20070;-73
2022/03/19 14:00:31;;;;;;;48.70;26.15;;;;;;;;;;5067538;28;20056;-73
2022/03/19 14:02:57;;;;;;;42.97;25.63;;;;;;;;;;5065853;28;20031;-73
2022/03/19 14:05:24;;;;;;;35.15;26.23;;;;;;;;;;5067534;28;20456;-73
2022/03/19 14:07:50;;;;;;;37.13;24.42;;;;;;;;;;5059809;28;20040;-73
2022/03/19 14:10:16;;;;;;;41.97;25.25;;;;;;;;;;5069155;28;20040;-73
2022/03/19 14:12:43;;;;;;;41.65;23.60;;;;;;;;;;5066705;28;20037;-73
2022/03/19 14:15:14;;;;;;;40.90;24.17;;;;;;;;;;5067607;28;20040;-73
2022/03/19 14:17:54;;;;;;;39.97;26.83;;;;;;;;;;5065936;28;20502;-72
2022/03/19 14:20:21;;;;;;;40.45;26.70;;;;;;;;;;5067395;28;20052;-72
2022/03/19 14:22:50;;;;;;;40.75;25.98;;;;;;;;;;5069669;28;20049;-72
2022/03/19 14:25:17;;;;;;;38.83;24.25;;;;;;;;;;5070846;28;20040;-72
2022/03/19 14:27:43;;;;;;;35.40;24.33;;;;;;;;;;5071455;28;20032;-72
2022/03/19 14:30:09;;;;;;;38.63;24.77;;;;;;;;;;5078003;28;20039;-73
2022/03/19 14:32:36;;;;;;;51.65;25.77;;;;;;;;;;5072421;28;20032;-73
2022/03/19 14:35:02;;;;;;;38.67;25.85;;;;;;;;;;5070689;28;20123;-73